Time;durP1;ratioP1;P1;durP2;ratioP2;P2;SDS_P1;SDS_P2;PMS_P1;PMS_P2;Temp;Humidity;BMP_temperature;BMP_pressure;BME280_temperature;BME280_humidity;BME280_pressure;Samples;Min_cycle;Max_cycle;Signal;HPM_P1;HPM_P2
2022/03/25 00:00:44;;;;;;;32.42;26.80;;;6.40;56.00;;;;;;5107479;28;20033;-63
2022/03/25 00:03:10;;;;;;;32.20;26.00;;;6.30;56.30;;;;;;5089933;28;20143;-63
2022/03/25 00:05:36;;;;;;;30.58;25.27;;;6.30;56.50;;;;;;5086349;28;20020;-63
2022/03/25 00:08:02;;;;;;;32.50;26.00;;;6.20;56.50;;;;;;5106664;28;20024;-63
2022/03/25 00:10:28;;;;;;;26.77;23.80;;;6.20;56.70;;;;;;5114083;28;20511;-63
2022/03/25 00:12:54;;;;;;;31.15;25.35;;;6.10;56.60;;;;;;5108164;28;20116;-63
2022/03/25 00:15:19;;;;;;;32.42;26.15;;;6.10;56.60;;;;;;5101860;28;20035;-63
2022/03/25 00:17:45;;;;;;;31.02;25.60;;;6.10;56.60;;;;;;5094153;28;20441;-63
2022/03/25 00:20:11;;;;;;;29.55;24.63;;;6.20;56.50;;;;;;5110220;28;20023;-63
2022/03/25 00:22:37;;;;;;;32.45;26.50;;;6.20;56.50;;;;;;5103232;28;20118;-63
2022/03/25 00:25:05;;;;;;;35.95;26.08;;;6.20;56.50;;;;;;5109136;28;20032;-63
2022/03/25 00:27:33;;;;;;;31.60;25.38;;;6.30;56.80;;;;;;5092484;28;20027;-63
2022/03/25 00:29:58;;;;;;;28.02;24.33;;;6.30;56.70;;;;;;5113447;28;20031;-64
2022/03/25 00:32:25;;;;;;;29.27;24.45;;;6.30;56.60;;;;;;5090203;28;20072;-63
2022/03/25 00:34:51;;;;;;;25.70;22.70;;;6.30;56.50;;;;;;5098031;28;20021;-63
2022/03/25 00:37:17;;;;;;;30.35;23.65;;;6.30;56.40;;;;;;5090132;28;20500;-63
2022/03/25 00:39:42;;;;;;;28.05;23.73;;;6.30;56.30;;;;;;5098014;28;20174;-63
2022/03/25 00:42:09;;;;;;;27.55;23.52;;;6.20;56.30;;;;;;5111610;28;20144;-63
2022/03/25 00:44:35;;;;;;;31.45;23.60;;;6.30;56.30;;;;;;5106364;28;20451;-63
2022/03/25 00:47:02;;;;;;;30.38;24.27;;;6.30;56.20;;;;;;5097353;28;20066;-63
2022/03/25 00:49:28;;;;;;;27.00;24.10;;;6.30;56.20;;;;;;5113066;28;20024;-63
2022/03/25 00:51:54;;;;;;;30.83;26.80;;;6.30;56.20;;;;;;5098702;28;20486;-61
2022/03/25 00:54:20;;;;;;;31.70;26.42;;;6.30;56.30;;;;;;5104429;28;20024;-63
2022/03/25 00:56:45;;;;;;;33.28;26.00;;;6.20;56.50;;;;;;5080691;28;20032;-61
2022/03/25 00:59:11;;;;;;;32.33;25.48;;;6.30;56.70;;;;;;5113338;28;20019;-63
2022/03/25 01:01:38;;;;;;;30.70;25.80;;;6.30;56.80;;;;;;5098819;28;20027;-63
2022/03/25 01:04:04;;;;;;;30.02;25.95;;;6.30;57.00;;;;;;5096699;28;20035;-62
2022/03/25 01:06:30;;;;;;;31.92;26.65;;;6.20;57.00;;;;;;5083942;28;20032;-63
2022/03/25 01:08:55;;;;;;;33.83;26.75;;;6.20;57.20;;;;;;5097650;28;20532;-63
2022/03/25 01:11:21;;;;;;;32.47;27.05;;;6.20;57.30;;;;;;5074561;28;20031;-63
2022/03/25 01:13:47;;;;;;;29.17;25.95;;;6.20;57.40;;;;;;5109418;28;20019;-63
2022/03/25 01:16:12;;;;;;;31.35;25.52;;;6.10;57.70;;;;;;5092176;28;20025;-63
2022/03/25 01:18:38;;;;;;;30.20;25.00;;;6.10;57.70;;;;;;5107992;28;20023;-63
2022/03/25 01:21:04;;;;;;;31.02;24.75;;;6.10;57.90;;;;;;5103297;28;20107;-63
2022/03/25 01:23:30;;;;;;;29.35;24.85;;;6.00;58.00;;;;;;5106631;28;20032;-63
2022/03/25 01:25:56;;;;;;;32.53;25.00;;;5.90;58.20;;;;;;5086437;28;20055;-63
2022/03/25 01:28:23;;;;;;;29.88;25.92;;;5.80;58.20;;;;;;5113179;28;20107;-63
2022/03/25 01:30:49;;;;;;;29.10;25.98;;;5.80;58.60;;;;;;5109829;28;20084;-63
2022/03/25 01:33:15;;;;;;;31.92;26.45;;;5.70;58.80;;;;;;5092419;28;20480;-63
2022/03/25 01:35:41;;;;;;;31.20;26.35;;;5.70;59.10;;;;;;5084031;28;20591;-63
2022/03/25 01:38:07;;;;;;;32.38;28.05;;;5.70;59.30;;;;;;5107043;28;20043;-63
2022/03/25 01:40:34;;;;;;;34.72;29.90;;;5.70;59.60;;;;;;5112875;28;20471;-63
2022/03/25 01:42:59;;;;;;;35.13;28.63;;;5.70;60.50;;;;;;5081533;28;20439;-63
2022/03/25 01:45:34;;;;;;;34.78;28.88;;;5.70;61.60;;;;;;5101725;28;20019;-63
2022/03/25 01:48:01;;;;;;;36.97;32.95;;;5.80;62.40;;;;;;5088399;28;20028;-63
2022/03/25 01:50:27;;;;;;;41.72;34.13;;;5.90;62.90;;;;;;5108088;28;20110;-63
2022/03/25 01:52:52;;;;;;;36.47;32.30;;;5.90;63.30;;;;;;5110453;28;20030;-63
2022/03/25 01:55:26;;;;;;;36.67;30.17;;;6.00;63.90;;;;;;5109942;28;20016;-63
2022/03/25 01:57:56;;;;;;;35.80;31.35;;;6.00;64.10;;;;;;5108921;28;20063;-63
2022/03/25 02:00:23;;;;;;;33.42;26.63;;;6.00;64.40;;;;;;5084741;28;20036;-63
2022/03/25 02:02:49;;;;;;;35.40;29.90;;;6.10;63.60;;;;;;5105750;28;20028;-63
2022/03/25 02:05:16;;;;;;;31.30;25.73;;;6.10;63.30;;;;;;5097359;28;20074;-63
2022/03/25 02:07:41;;;;;;;25.83;22.73;;;6.10;62.30;;;;;;5116116;28;20438;-63
2022/03/25 02:10:08;;;;;;;26.23;22.65;;;6.10;61.30;;;;;;5105225;28;20033;-63
2022/03/25 02:12:35;;;;;;;24.88;20.88;;;6.20;60.70;;;;;;5097240;28;20020;-63
2022/03/25 02:15:02;;;;;;;23.50;21.02;;;6.20;60.30;;;;;;5090777;28;20056;-63
2022/03/25 02:17:27;;;;;;;25.58;21.98;;;6.30;60.00;;;;;;5104343;28;20077;-63
2022/03/25 02:19:53;;;;;;;23.92;21.23;;;6.30;59.70;;;;;;5116236;28;20479;-63
2022/03/25 02:22:19;;;;;;;28.45;22.88;;;6.30;59.50;;;;;;5111213;28;20491;-63
2022/03/25 02:24:44;;;;;;;25.60;22.27;;;6.30;59.50;;;;;;5104530;28;20063;-63
2022/03/25 02:27:12;;;;;;;24.65;21.55;;;6.40;59.30;;;;;;5101383;28;20035;-63
2022/03/25 02:29:39;;;;;;;30.73;24.95;;;6.40;59.10;;;;;;5106205;28;20012;-63
2022/03/25 02:32:05;;;;;;;31.25;26.27;;;6.50;60.50;;;;;;5099540;28;20070;-63
2022/03/25 02:34:31;;;;;;;28.75;25.45;;;6.50;61.00;;;;;;5104770;28;20055;-63
2022/03/25 02:36:57;;;;;;;31.25;26.63;;;6.50;61.10;;;;;;5093671;28;20029;-63
2022/03/25 02:39:23;;;;;;;33.72;27.30;;;6.40;62.00;;;;;;5113686;28;20031;-63
2022/03/25 02:41:49;;;;;;;31.95;26.73;;;6.40;63.30;;;;;;5111052;28;20024;-63
2022/03/25 02:44:15;;;;;;;33.17;28.20;;;6.30;63.40;;;;;;5114056;28;20048;-63
2022/03/25 02:46:41;;;;;;;33.00;28.38;;;6.30;63.50;;;;;;5097002;28;20393;-63
2022/03/25 02:49:07;;;;;;;30.02;24.83;;;6.20;64.30;;;;;;5089616;28;20031;-63
2022/03/25 02:51:33;;;;;;;30.92;27.55;;;6.20;65.20;;;;;;5087090;28;20043;-63
2022/03/25 02:53:58;;;;;;;33.42;28.55;;;6.20;65.10;;;;;;5115538;28;20097;-63
2022/03/25 02:56:27;;;;;;;31.92;27.20;;;6.10;65.10;;;;;;5115389;28;20019;-63
2022/03/25 02:58:53;;;;;;;30.52;25.90;;;6.00;65.80;;;;;;5108891;28;20048;-63
2022/03/25 03:01:19;;;;;;;32.33;26.95;;;6.00;66.40;;;;;;5082740;28;20033;-63
2022/03/25 03:03:45;;;;;;;27.67;24.58;;;6.00;66.80;;;;;;5093014;28;20035;-63
2022/03/25 03:06:11;;;;;;;32.45;26.05;;;6.00;67.00;;;;;;5084966;28;20461;-62
2022/03/25 03:08:37;;;;;;;36.40;28.17;;;6.00;67.20;;;;;;5109016;28;20034;-63
2022/03/25 03:11:04;;;;;;;32.92;28.08;;;6.00;67.50;;;;;;5102797;28;20525;-62
2022/03/25 03:13:30;;;;;;;30.67;26.80;;;6.00;67.80;;;;;;5091666;28;20387;-63
2022/03/25 03:15:55;;;;;;;23.15;20.40;;;6.00;67.70;;;;;;5109230;28;20120;-63
2022/03/25 03:18:21;;;;;;;22.40;19.15;;;6.00;67.50;;;;;;5113651;28;20455;-63
2022/03/25 03:20:47;;;;;;;25.30;21.08;;;6.00;67.20;;;;;;5088144;28;20081;-63
2022/03/25 03:23:13;;;;;;;23.65;20.55;;;6.10;67.20;;;;;;5109687;28;20031;-63
2022/03/25 03:25:40;;;;;;;23.23;20.38;;;6.10;67.40;;;;;;5100784;28;20031;-63
2022/03/25 03:28:07;;;;;;;26.00;21.05;;;6.10;67.30;;;;;;5090622;28;20035;-63
2022/03/25 03:30:33;;;;;;;21.23;18.75;;;6.00;67.30;;;;;;5108952;28;20039;-63
2022/03/25 03:32:59;;;;;;;20.48;18.25;;;6.00;67.40;;;;;;5100846;28;20023;-63
2022/03/25 03:35:26;;;;;;;22.20;18.20;;;6.00;67.40;;;;;;5095687;28;20504;-63
2022/03/25 03:37:53;;;;;;;21.27;18.00;;;6.00;67.40;;;;;;5088547;28;20412;-63
2022/03/25 03:40:19;;;;;;;18.73;16.73;;;6.00;67.20;;;;;;5106104;28;20019;-63
2022/03/25 03:42:46;;;;;;;16.95;14.07;;;6.00;67.20;;;;;;5107240;28;20046;-63
2022/03/25 03:45:12;;;;;;;16.25;13.88;;;6.00;66.90;;;;;;5114491;28;20031;-63
2022/03/25 03:47:40;;;;;;;16.80;14.68;;;6.00;66.70;;;;;;5103871;28;20467;-63
2022/03/25 03:50:08;;;;;;;15.43;13.73;;;6.00;66.50;;;;;;5105087;28;20424;-63
2022/03/25 03:52:35;;;;;;;17.35;14.60;;;6.00;66.30;;;;;;5101878;28;20021;-63
2022/03/25 03:55:03;;;;;;;15.63;13.93;;;6.00;66.30;;;;;;5098332;28;20023;-63
2022/03/25 03:57:29;;;;;;;16.20;13.88;;;6.00;66.60;;;;;;5111708;28;20473;-63
2022/03/25 03:59:55;;;;;;;15.05;13.48;;;5.90;65.90;;;;;;5095939;28;20020;-63
2022/03/25 04:02:21;;;;;;;15.63;13.93;;;5.90;66.40;;;;;;5105432;28;20431;-63
2022/03/25 04:04:47;;;;;;;16.10;13.90;;;5.90;65.40;;;;;;5096938;28;20023;-63
2022/03/25 04:07:13;;;;;;;15.90;14.27;;;5.90;65.50;;;;;;5100338;28;20035;-63
2022/03/25 04:09:39;;;;;;;16.20;13.88;;;5.90;65.00;;;;;;5095960;28;20035;-63
2022/03/25 04:12:06;;;;;;;16.50;14.10;;;6.00;64.70;;;;;;5099749;28;20107;-63
2022/03/25 04:14:31;;;;;;;15.73;13.18;;;6.00;64.50;;;;;;5113837;27;20072;-63
2022/03/25 04:16:57;;;;;;;14.43;12.93;;;6.00;64.20;;;;;;5104747;28;20372;-63
2022/03/25 04:19:22;;;;;;;16.55;12.98;;;6.00;64.20;;;;;;5079307;28;20489;-63
2022/03/25 04:21:48;;;;;;;13.73;12.25;;;6.10;64.40;;;;;;5113808;28;20372;-63
2022/03/25 04:24:14;;;;;;;15.02;12.77;;;6.00;64.60;;;;;;5114031;28;20028;-63
2022/03/25 04:26:39;;;;;;;13.73;12.25;;;6.10;64.60;;;;;;5094433;28;20027;-63
2022/03/25 04:29:06;;;;;;;15.30;13.15;;;6.10;64.60;;;;;;5094064;28;20045;-63
2022/03/25 04:31:32;;;;;;;13.60;12.20;;;6.10;64.20;;;;;;5107488;28;20434;-63
2022/03/25 04:33:58;;;;;;;14.18;12.68;;;6.10;63.90;;;;;;5096073;28;20069;-63
2022/03/25 04:36:23;;;;;;;14.48;12.15;;;6.10;63.80;;;;;;5113174;28;20039;-63
2022/03/25 04:38:49;;;;;;;13.85;12.35;;;6.10;63.60;;;;;;5088134;28;20479;-63
2022/03/25 04:41:15;;;;;;;13.90;12.50;;;6.20;63.80;;;;;;5113778;28;20032;-63
2022/03/25 04:43:40;;;;;;;15.25;13.43;;;6.20;63.60;;;;;;5083697;28;20086;-63
2022/03/25 04:46:06;;;;;;;15.75;13.15;;;6.20;63.50;;;;;;5087130;28;20035;-63
2022/03/25 04:48:33;;;;;;;14.63;12.40;;;6.30;63.80;;;;;;5113462;28;20091;-63
2022/03/25 04:50:59;;;;;;;14.15;12.43;;;6.30;63.70;;;;;;5086273;28;20027;-63
2022/03/25 04:53:26;;;;;;;14.05;12.55;;;6.30;63.70;;;;;;5113311;28;20027;-63
2022/03/25 04:55:52;;;;;;;16.20;13.10;;;6.40;63.50;;;;;;5105424;28;20111;-63
2022/03/25 04:58:18;;;;;;;16.45;13.32;;;6.50;63.60;;;;;;5099240;28;20035;-63
2022/03/25 05:00:44;;;;;;;15.57;12.63;;;6.50;63.30;;;;;;5085132;28;20025;-63
2022/03/25 05:03:11;;;;;;;13.57;12.15;;;6.60;63.10;;;;;;5093510;28;20028;-63
2022/03/25 05:05:37;;;;;;;14.02;12.63;;;6.70;62.90;;;;;;5097666;28;20053;-63
2022/03/25 05:08:04;;;;;;;14.63;12.38;;;6.70;62.70;;;;;;5091540;28;20056;-63
2022/03/25 05:10:29;;;;;;;13.93;11.95;;;6.80;62.50;;;;;;5110888;28;20039;-63
2022/03/25 05:12:55;;;;;;;14.73;12.70;;;6.90;62.10;;;;;;5113325;28;20023;-63
2022/03/25 05:15:21;;;;;;;13.57;11.98;;;7.00;62.00;;;;;;5099050;28;20067;-63
2022/03/25 05:17:50;;;;;;;15.35;12.52;;;7.10;61.90;;;;;;5081622;28;20568;-63
2022/03/25 05:20:19;;;;;;;14.98;13.07;;;7.10;61.50;;;;;;5111399;28;20547;-63
2022/03/25 05:22:46;;;;;;;13.07;11.77;;;7.20;61.70;;;;;;5115595;28;20487;-63
2022/03/25 05:25:12;;;;;;;14.30;12.73;;;7.40;61.40;;;;;;5089472;28;20483;-63
2022/03/25 05:27:51;;;;;;;15.10;12.00;;;7.50;61.00;;;;;;5081880;28;20036;-63
2022/03/25 05:30:22;;;;;;;13.52;12.07;;;7.60;60.80;;;;;;5095647;28;20024;-63
2022/03/25 05:32:48;;;;;;;14.32;12.45;;;7.70;60.90;;;;;;5102854;28;20434;-63
2022/03/25 05:35:14;;;;;;;15.13;12.93;;;7.90;61.00;;;;;;5098837;28;20071;-63
2022/03/25 05:37:40;;;;;;;14.40;11.70;;;8.20;60.60;;;;;;5098864;28;20075;-63
2022/03/25 05:40:08;;;;;;;15.23;12.52;;;8.50;60.00;;;;;;5093696;28;20039;-63
2022/03/25 05:42:35;;;;;;;14.70;11.68;;;8.80;59.20;;;;;;5110162;28;20505;-63
2022/03/25 05:45:00;;;;;;;13.65;11.52;;;8.90;58.70;;;;;;5116766;28;20110;-63
2022/03/25 05:47:26;;;;;;;14.40;11.95;;;9.00;58.30;;;;;;5116750;28;20111;-63
2022/03/25 05:49:52;;;;;;;12.57;11.27;;;9.10;58.00;;;;;;5090386;28;20043;-63
2022/03/25 05:52:18;;;;;;;13.25;11.77;;;9.10;57.70;;;;;;5082395;28;20028;-63
2022/03/25 05:54:44;;;;;;;12.68;11.38;;;9.20;57.70;;;;;;5115439;28;20027;-63
2022/03/25 05:57:10;;;;;;;13.43;11.77;;;9.40;57.30;;;;;;5086349;28;20492;-63
2022/03/25 05:59:36;;;;;;;14.07;11.90;;;9.70;57.00;;;;;;5090912;28;20059;-63
2022/03/25 06:02:02;;;;;;;12.88;10.93;;;9.90;56.60;;;;;;5086923;28;20612;-61
2022/03/25 06:04:27;;;;;;;14.45;11.85;;;10.10;56.30;;;;;;5092597;27;20032;-63
2022/03/25 06:06:53;;;;;;;13.40;11.18;;;10.30;56.10;;;;;;5083558;28;20074;-63
2022/03/25 06:09:19;;;;;;;12.15;10.85;;;10.50;55.90;;;;;;5097759;28;20099;-63
2022/03/25 06:11:45;;;;;;;13.10;10.63;;;10.80;55.50;;;;;;5084220;28;20037;-61
2022/03/25 06:14:11;;;;;;;12.25;10.68;;;11.00;54.90;;;;;;5096826;28;20497;-61
2022/03/25 06:16:39;;;;;;;13.63;11.60;;;11.20;54.40;;;;;;5092082;28;20031;-61
2022/03/25 06:19:05;;;;;;;11.75;10.55;;;11.30;54.20;;;;;;5107187;28;20115;-61
2022/03/25 06:21:30;;;;;;;12.18;10.68;;;11.20;54.10;;;;;;5106203;28;20484;-62
2022/03/25 06:23:56;;;;;;;13.07;11.55;;;11.10;54.20;;;;;;5102000;28;20034;-63
2022/03/25 06:26:22;;;;;;;12.98;11.50;;;10.80;54.50;;;;;;5095390;28;20039;-61
2022/03/25 06:28:48;;;;;;;12.82;11.50;;;10.60;55.00;;;;;;5107304;28;20028;-61
2022/03/25 06:31:13;;;;;;;12.55;10.85;;;10.40;55.40;;;;;;5108406;28;20056;-62
2022/03/25 06:33:40;;;;;;;13.82;11.38;;;10.20;55.90;;;;;;5103053;28;20019;-61
2022/03/25 06:36:16;;;;;;;12.73;11.15;;;10.00;56.40;;;;;;5084142;28;20032;-62
2022/03/25 06:38:42;;;;;;;14.15;12.07;;;9.90;56.70;;;;;;5099826;28;20028;-62
2022/03/25 06:41:09;;;;;;;15.20;12.23;;;9.80;57.20;;;;;;5104239;28;20034;-62
2022/03/25 06:43:36;;;;;;;15.13;12.07;;;9.70;57.50;;;;;;5085843;28;20059;-62
2022/03/25 06:46:04;;;;;;;15.48;13.63;;;9.60;57.70;;;;;;5094385;28;20562;-62
2022/03/25 06:48:30;;;;;;;14.00;11.90;;;9.60;57.90;;;;;;5103886;28;20463;-62
2022/03/25 06:50:56;;;;;;;14.35;12.85;;;9.50;58.00;;;;;;5101894;28;20039;-62
2022/03/25 06:53:22;;;;;;;13.75;12.15;;;9.50;58.10;;;;;;5115784;28;20209;-61
2022/03/25 06:55:48;;;;;;;13.30;11.65;;;9.50;58.30;;;;;;5100571;28;20543;-61
2022/03/25 06:58:14;;;;;;;14.43;12.50;;;9.40;58.30;;;;;;5104481;28;20028;-61
2022/03/25 07:00:40;;;;;;;13.27;11.77;;;9.40;58.30;;;;;;5090773;28;20055;-61
2022/03/25 07:03:06;;;;;;;16.10;12.43;;;9.30;58.40;;;;;;5090989;28;20040;-64
2022/03/25 07:05:33;;;;;;;14.77;12.68;;;9.30;58.60;;;;;;5090038;28;20077;-61
2022/03/25 07:07:59;;;;;;;15.30;12.85;;;9.30;58.80;;;;;;5092895;28;20036;-61
2022/03/25 07:10:26;;;;;;;13.52;11.95;;;9.30;58.80;;;;;;5087365;28;20395;-61
2022/03/25 07:12:53;;;;;;;13.77;12.35;;;9.30;59.00;;;;;;5078347;28;20078;-61
2022/03/25 07:15:20;;;;;;;14.25;12.20;;;9.30;59.10;;;;;;5084982;28;20107;-61
2022/03/25 07:17:46;;;;;;;13.95;12.45;;;9.30;59.10;;;;;;5091785;28;20026;-61
2022/03/25 07:20:14;;;;;;;12.98;11.48;;;9.40;59.10;;;;;;5086511;28;20052;-61
2022/03/25 07:22:45;;;;;;;14.95;11.70;;;9.40;59.20;;;;;;5083948;28;20032;-61
2022/03/25 07:25:12;;;;;;;12.73;11.13;;;9.40;59.10;;;;;;5089822;28;20024;-61
2022/03/25 07:27:37;;;;;;;12.85;11.30;;;9.40;59.20;;;;;;5084352;28;20036;-61
2022/03/25 07:30:04;;;;;;;12.38;10.95;;;9.50;59.40;;;;;;5083349;28;20553;-61
2022/03/25 07:32:31;;;;;;;13.30;11.90;;;9.50;59.50;;;;;;5074022;28;20024;-61
2022/03/25 07:34:56;;;;;;;13.07;11.77;;;9.50;59.50;;;;;;5075639;28;20051;-61
2022/03/25 07:37:22;;;;;;;15.55;12.20;;;9.50;59.50;;;;;;5075172;28;20048;-62
2022/03/25 07:39:48;;;;;;;12.82;11.43;;;9.50;59.50;;;;;;5083351;28;20016;-62
2022/03/25 07:42:14;;;;;;;12.07;10.75;;;9.60;59.50;;;;;;5077907;28;20035;-62
2022/03/25 07:44:40;;;;;;;12.73;11.43;;;9.60;59.50;;;;;;5082801;28;20562;-62
2022/03/25 07:47:08;;;;;;;13.00;11.43;;;9.60;59.40;;;;;;5082372;28;20032;-62
2022/03/25 07:49:35;;;;;;;12.68;10.57;;;9.70;59.50;;;;;;5081640;28;20362;-62
2022/03/25 07:52:02;;;;;;;13.15;11.50;;;9.70;59.50;;;;;;5079312;28;20028;-62
2022/03/25 07:54:28;;;;;;;12.13;10.85;;;9.70;59.50;;;;;;5083344;28;20056;-61
2022/03/25 07:56:57;;;;;;;12.10;10.80;;;9.80;59.50;;;;;;5076999;28;20103;-61
2022/03/25 07:59:23;;;;;;;13.32;10.20;;;9.80;59.50;;;;;;5075100;28;20043;-62
2022/03/25 08:01:49;;;;;;;11.25;10.10;;;9.80;59.50;;;;;;5075973;28;20528;-61
2022/03/25 08:04:15;;;;;;;13.48;10.88;;;9.90;59.50;;;;;;5080385;28;20260;-61
2022/03/25 08:06:41;;;;;;;13.60;10.60;;;9.90;59.60;;;;;;5076093;28;20029;-61
2022/03/25 08:09:07;;;;;;;12.43;10.85;;;10.00;59.60;;;;;;5084048;28;20074;-60
2022/03/25 08:11:32;;;;;;;12.40;10.23;;;10.00;59.70;;;;;;5080036;28;20119;-60
2022/03/25 08:13:58;;;;;;;11.27;9.85;;;10.00;59.60;;;;;;5083061;28;20059;-60
2022/03/25 08:16:24;;;;;;;13.30;10.77;;;10.00;59.40;;;;;;5087311;28;20119;-60
2022/03/25 08:18:49;;;;;;;12.30;10.45;;;10.00;59.40;;;;;;5079741;28;20528;-60
2022/03/25 08:21:15;;;;;;;13.13;10.43;;;10.10;59.40;;;;;;5086164;28;20507;-60
2022/03/25 08:29:10;;;;;;;11.32;10.10;;;10.10;59.50;;;;;;5082966;28;20029;-60
2022/03/25 08:31:36;;;;;;;12.23;10.93;;;10.10;59.60;;;;;;5073373;28;20032;-61
2022/03/25 08:34:03;;;;;;;11.57;10.27;;;10.20;59.60;;;;;;5083698;28;20028;-62
2022/03/25 08:36:29;;;;;;;11.45;9.57;;;10.20;59.60;;;;;;5078738;28;20044;-63
2022/03/25 08:38:55;;;;;;;11.50;9.63;;;10.20;59.50;;;;;;5076138;28;20039;-62
2022/03/25 08:41:21;;;;;;;12.80;10.30;;;10.20;59.40;;;;;;5076981;28;20066;-62
2022/03/25 08:43:49;;;;;;;13.75;9.52;;;10.30;59.40;;;;;;5078277;28;20054;-62
2022/03/25 08:46:15;;;;;;;12.00;9.90;;;10.20;59.20;;;;;;5079983;28;20039;-63
2022/03/25 08:48:40;;;;;;;13.63;10.43;;;10.30;59.30;;;;;;5080046;28;20027;-62
2022/03/25 08:51:06;;;;;;;13.60;9.93;;;10.30;59.10;;;;;;5076515;28;20081;-62
2022/03/25 08:53:32;;;;;;;13.07;10.00;;;10.30;59.00;;;;;;5070847;28;20726;-59
2022/03/25 08:55:58;;;;;;;10.57;9.48;;;10.30;59.00;;;;;;5072233;28;20167;-60
2022/03/25 08:58:24;;;;;;;11.35;9.63;;;10.30;59.00;;;;;;5072290;28;20570;-61
2022/03/25 09:00:50;;;;;;;10.48;9.20;;;10.30;58.80;;;;;;5067387;28;20039;-60
2022/03/25 09:03:16;;;;;;;10.68;9.25;;;10.30;58.60;;;;;;5077559;28;20125;-60
2022/03/25 09:05:41;;;;;;;9.98;9.00;;;10.30;58.50;;;;;;5078955;28;20045;-61
2022/03/25 09:08:07;;;;;;;10.80;9.70;;;10.30;58.30;;;;;;5074003;28;20038;-61
2022/03/25 09:10:33;;;;;;;10.48;9.40;;;10.30;58.30;;;;;;5079165;28;20035;-61
2022/03/25 09:12:59;;;;;;;13.30;10.13;;;10.30;58.10;;;;;;5078092;28;20036;-60
2022/03/25 09:15:25;;;;;;;10.32;9.32;;;10.40;58.00;;;;;;5071926;28;20039;-61
2022/03/25 09:17:51;;;;;;;10.40;9.30;;;10.40;57.90;;;;;;5072917;28;20054;-61
2022/03/25 09:20:17;;;;;;;9.90;8.93;;;10.40;57.70;;;;;;5081670;28;20040;-60
2022/03/25 09:22:43;;;;;;;10.23;9.15;;;10.40;57.60;;;;;;5075203;28;20067;-61
2022/03/25 09:25:10;;;;;;;10.05;9.05;;;10.40;57.20;;;;;;5082534;28;20060;-61
2022/03/25 09:27:37;;;;;;;9.98;8.45;;;10.40;57.20;;;;;;5075356;28;20032;-62
2022/03/25 09:30:05;;;;;;;9.70;8.70;;;10.40;56.90;;;;;;5072970;28;20131;-61
2022/03/25 09:32:31;;;;;;;9.60;8.60;;;10.50;56.80;;;;;;5074133;28;20024;-60
2022/03/25 09:35:08;;;;;;;8.93;8.02;;;10.50;56.70;;;;;;5080045;28;20035;-62
2022/03/25 09:37:42;;;;;;;11.02;8.88;;;10.50;56.60;;;;;;5069514;28;20048;-61
2022/03/25 09:40:14;;;;;;;10.20;8.25;;;10.50;56.50;;;;;;5077825;28;20113;-62
2022/03/25 09:42:41;;;;;;;9.82;8.82;;;10.50;56.30;;;;;;5073314;28;20031;-61
2022/03/25 09:45:08;;;;;;;9.60;8.60;;;10.50;56.30;;;;;;5072775;28;20408;-61
2022/03/25 09:47:34;;;;;;;9.45;8.45;;;10.60;56.30;;;;;;5071987;28;20496;-60
2022/03/25 09:50:01;;;;;;;11.48;8.63;;;10.50;56.00;;;;;;5072561;28;20039;-61
2022/03/25 09:52:31;;;;;;;10.23;8.23;;;10.60;56.00;;;;;;5070871;28;20537;-62
2022/03/25 09:54:58;;;;;;;10.90;8.73;;;10.60;55.90;;;;;;5073077;28;20036;-62
2022/03/25 09:57:24;;;;;;;9.48;8.48;;;10.60;56.00;;;;;;5072078;28;20675;-61
2022/03/25 09:59:49;;;;;;;13.10;8.35;;;10.60;55.90;;;;;;5066503;28;20796;-61
2022/03/25 10:02:16;;;;;;;9.60;8.32;;;10.70;55.50;;;;;;5070817;28;20028;-61
2022/03/25 10:04:46;;;;;;;10.65;8.40;;;10.70;55.50;;;;;;5074442;28;20043;-61
2022/03/25 10:07:16;;;;;;;10.18;8.20;;;10.70;55.60;;;;;;5069733;28;20685;-61
2022/03/25 10:09:44;;;;;;;9.45;8.43;;;10.80;55.50;;;;;;5083420;28;20086;-61
2022/03/25 10:12:43;;;;;;;10.18;8.70;;;10.70;55.40;;;;;;5077111;28;20067;-61
2022/03/25 10:15:20;;;;;;;10.65;8.57;;;10.80;55.30;;;;;;5068236;28;20044;-61
2022/03/25 10:17:49;;;;;;;9.50;8.25;;;10.70;55.30;;;;;;5081383;28;20020;-61
2022/03/25 10:20:16;;;;;;;9.77;8.57;;;10.80;55.20;;;;;;5078162;28;20647;-61
2022/03/25 10:23:08;;;;;;;9.40;7.72;;;10.80;55.20;;;;;;5077823;28;20035;-59
2022/03/25 10:25:37;;;;;;;9.57;8.10;;;10.80;55.10;;;;;;5079801;28;20047;-61
2022/03/25 10:28:04;;;;;;;9.65;8.65;;;10.80;55.20;;;;;;5079798;28;20024;-61
2022/03/25 10:30:38;;;;;;;9.35;8.35;;;10.80;55.30;;;;;;5075183;28;20395;-61
2022/03/25 10:33:11;;;;;;;12.45;9.18;;;10.80;55.20;;;;;;5075765;28;20028;-61
2022/03/25 10:36:07;;;;;;;10.40;8.85;;;10.80;55.20;;;;;;5070918;28;20028;-62
2022/03/25 10:39:11;;;;;;;11.40;9.48;;;10.80;55.20;;;;;;5074791;28;20043;-60
2022/03/25 10:41:50;;;;;;;10.00;8.68;;;10.80;54.90;;;;;;5069928;28;20113;-60
2022/03/25 10:44:16;;;;;;;9.68;8.55;;;10.80;54.90;;;;;;5072859;28;20066;-62
2022/03/25 10:46:49;;;;;;;10.57;9.25;;;10.80;54.80;;;;;;5074186;28;20044;-62
2022/03/25 10:49:17;;;;;;;11.88;8.70;;;10.80;54.70;;;;;;5077606;28;20032;-62
2022/03/25 10:51:55;;;;;;;11.40;9.60;;;10.80;54.50;;;;;;5074300;28;20629;-63
2022/03/25 10:54:28;;;;;;;9.88;8.63;;;10.80;54.30;;;;;;5076185;28;20820;-63
2022/03/25 10:56:56;;;;;;;10.73;8.63;;;10.80;54.10;;;;;;5072349;28;20395;-63
2022/03/25 10:59:24;;;;;;;10.85;8.90;;;10.80;54.00;;;;;;5073810;28;20020;-62
2022/03/25 11:01:52;;;;;;;10.88;9.45;;;10.80;54.00;;;;;;5072380;28;20024;-61
2022/03/25 11:04:18;;;;;;;12.38;9.57;;;10.90;53.90;;;;;;5071581;28;20020;-64
2022/03/25 11:06:48;;;;;;;10.82;9.23;;;10.90;53.80;;;;;;5079696;28;20573;-64
2022/03/25 11:09:15;;;;;;;10.05;8.90;;;10.90;53.80;;;;;;5078340;28;20024;-64
2022/03/25 11:11:42;;;;;;;11.27;8.80;;;10.90;53.80;;;;;;5075221;28;20062;-63
2022/03/25 11:14:09;;;;;;;11.38;9.27;;;10.90;53.80;;;;;;5075180;28;20023;-64
2022/03/25 11:16:40;;;;;;;11.02;9.35;;;10.90;53.80;;;;;;5067499;28;20032;-63
2022/03/25 11:19:09;;;;;;;11.00;9.35;;;11.00;53.80;;;;;;5076577;28;20103;-63
2022/03/25 11:21:38;;;;;;;12.30;8.52;;;11.00;53.80;;;;;;5077396;28;20040;-63
2022/03/25 11:24:09;;;;;;;11.75;9.32;;;11.00;53.80;;;;;;5077415;28;20028;-63
2022/03/25 11:26:40;;;;;;;11.25;9.80;;;11.00;53.70;;;;;;5080272;28;20024;-63
2022/03/25 11:29:10;;;;;;;10.15;8.57;;;11.10;53.80;;;;;;5074547;28;20032;-63
2022/03/25 11:32:02;;;;;;;11.20;9.10;;;11.10;53.90;;;;;;5076910;28;20071;-63
2022/03/25 11:34:27;;;;;;;10.35;8.68;;;11.10;53.90;;;;;;5080944;28;20040;-64
2022/03/25 11:37:32;;;;;;;13.52;8.85;;;11.10;54.00;;;;;;5085916;28;20050;-63
2022/03/25 11:40:13;;;;;;;11.30;9.50;;;11.10;54.10;;;;;;5079127;28;20032;-63
2022/03/25 11:42:41;;;;;;;11.93;9.30;;;11.10;54.20;;;;;;5083749;28;20856;-63
2022/03/25 11:45:31;;;;;;;11.50;9.57;;;11.20;54.20;;;;;;5072963;28;20028;-63
2022/03/25 11:47:59;;;;;;;10.30;9.00;;;11.20;54.10;;;;;;5075330;28;20103;-62
2022/03/25 11:50:39;;;;;;;11.45;9.60;;;11.20;54.10;;;;;;5078139;28;20032;-63
2022/03/25 11:53:10;;;;;;;11.82;9.95;;;11.20;54.10;;;;;;5076682;28;20931;-62
2022/03/25 11:56:15;;;;;;;10.80;9.20;;;11.20;54.10;;;;;;5074311;28;20028;-62
2022/03/25 11:58:57;;;;;;;11.52;8.85;;;11.30;54.10;;;;;;5053316;28;20039;-63
2022/03/25 12:01:24;;;;;;;11.05;9.32;;;11.30;54.10;;;;;;5057083;28;20051;-62
2022/03/25 12:03:54;;;;;;;10.02;8.68;;;11.30;54.60;;;;;;5058208;28;20045;-63
2022/03/25 12:06:22;;;;;;;12.43;9.73;;;11.30;53.90;;;;;;5059286;28;20384;-61
2022/03/25 12:09:04;;;;;;;10.55;9.45;;;11.30;53.90;;;;;;5065939;28;20060;-62
2022/03/25 12:11:50;;;;;;;11.18;9.57;;;11.40;54.30;;;;;;5074092;28;20040;-62
2022/03/25 12:14:31;;;;;;;11.88;10.52;;;11.40;53.80;;;;;;5077675;28;20024;-61
2022/03/25 12:17:04;;;;;;;12.38;11.07;;;11.40;53.90;;;;;;5073357;28;20056;-63
2022/03/25 12:19:30;;;;;;;11.93;10.43;;;11.40;53.80;;;;;;5083925;28;20032;-62
2022/03/25 12:21:58;;;;;;;11.07;9.60;;;11.40;53.80;;;;;;5068760;28;20028;-63
2022/03/25 12:24:26;;;;;;;11.00;9.48;;;11.40;53.70;;;;;;5072286;28;20035;-62
2022/03/25 12:27:00;;;;;;;12.13;10.27;;;11.50;53.70;;;;;;5075177;28;20038;-62
2022/03/25 12:29:34;;;;;;;11.65;9.55;;;11.50;53.60;;;;;;5075055;28;20036;-61
2022/03/25 12:32:05;;;;;;;11.15;9.57;;;11.50;53.60;;;;;;5078072;28;20591;-61
2022/03/25 12:34:49;;;;;;;11.38;10.20;;;11.50;53.60;;;;;;5062670;28;20122;-60
2022/03/25 12:37:27;;;;;;;12.07;9.98;;;11.60;53.50;;;;;;5075729;28;20052;-61
2022/03/25 12:39:53;;;;;;;11.77;9.68;;;11.60;53.30;;;;;;5079664;28;20101;-60
2022/03/25 12:42:19;;;;;;;12.07;10.00;;;11.50;53.20;;;;;;5083485;28;20069;-62
2022/03/25 12:44:53;;;;;;;13.57;10.25;;;11.60;53.20;;;;;;5082228;28;20025;-60